createdAt,value
2022-08-28T00:00:09.370Z,24
2022-08-28T00:01:15.492Z,24
2022-08-28T00:02:21.614Z,23.9
2022-08-28T00:03:26.728Z,24
2022-08-28T00:04:32.846Z,24
2022-08-28T00:05:38.959Z,24
2022-08-28T00:06:45.072Z,24
2022-08-28T00:07:51.191Z,24
2022-08-28T00:08:57.307Z,24
2022-08-28T00:10:03.419Z,23.9
2022-08-28T00:11:09.528Z,24
2022-08-28T00:12:15.640Z,24
2022-08-28T00:13:21.753Z,24
2022-08-28T00:14:27.876Z,23.9
2022-08-28T00:15:33.990Z,24
2022-08-28T00:16:40.098Z,24
2022-08-28T00:17:45.230Z,24
2022-08-28T00:18:51.338Z,23.9
2022-08-28T00:19:57.459Z,23.9
2022-08-28T00:21:03.567Z,24
2022-08-28T00:22:09.686Z,23.9
2022-08-28T00:23:15.800Z,23.9
2022-08-28T00:24:21.911Z,24
2022-08-28T00:25:28.039Z,23.9
2022-08-28T00:26:34.138Z,23.9
2022-08-28T00:27:40.256Z,24
2022-08-28T00:28:46.363Z,23.9
2022-08-28T00:29:52.482Z,23.9
2022-08-28T00:30:58.595Z,23.9
2022-08-28T00:32:03.727Z,23.9
2022-08-28T00:33:09.843Z,23.9
2022-08-28T00:34:15.953Z,24
2022-08-28T00:35:22.068Z,23.9
2022-08-28T00:36:28.180Z,23.9
2022-08-28T00:37:34.286Z,23.9
2022-08-28T00:38:40.407Z,23.9
2022-08-28T00:39:46.529Z,23.9
2022-08-28T00:40:52.637Z,23.9
2022-08-28T00:41:58.752Z,23.9
2022-08-28T00:43:04.862Z,23.9
2022-08-28T00:44:10.975Z,23.9
2022-08-28T00:45:17.095Z,23.9
2022-08-28T00:46:22.236Z,23.9
2022-08-28T00:47:28.327Z,23.9
2022-08-28T00:48:34.453Z,23.9
2022-08-28T00:49:40.567Z,23.9
2022-08-28T00:50:46.673Z,23.9
2022-08-28T00:51:52.785Z,23.9
2022-08-28T00:52:58.901Z,23.9
2022-08-28T00:54:05.016Z,23.9
2022-08-28T00:55:11.126Z,23.9
2022-08-28T00:56:17.249Z,23.9
2022-08-28T00:57:23.369Z,23.9
2022-08-28T00:58:29.472Z,23.9
2022-08-28T00:59:35.583Z,23.9
2022-08-28T01:00:40.714Z,23.9
2022-08-28T01:01:46.827Z,23.9
2022-08-28T01:02:52.945Z,23.9
2022-08-28T01:03:59.060Z,23.9
2022-08-28T01:05:05.169Z,23.9
2022-08-28T01:06:11.277Z,23.9
2022-08-28T01:07:17.398Z,23.9
2022-08-28T01:08:23.522Z,23.9
2022-08-28T01:09:29.626Z,23.9
2022-08-28T01:10:35.741Z,23.9
2022-08-28T01:11:41.867Z,23.9
2022-08-28T01:12:47.966Z,23.9
2022-08-28T01:13:54.096Z,23.9
2022-08-28T01:14:59.212Z,23.9
2022-08-28T01:16:05.327Z,23.9
2022-08-28T01:17:11.436Z,23.9
2022-08-28T01:18:17.549Z,23.9
2022-08-28T01:19:23.670Z,23.9
2022-08-28T01:20:29.776Z,23.9
2022-08-28T01:21:35.886Z,23.9
2022-08-28T01:22:42.008Z,23.9
2022-08-28T01:23:48.119Z,23.9
2022-08-28T01:24:54.238Z,23.9
2022-08-28T01:26:00.350Z,23.9
2022-08-28T01:27:06.458Z,23.9
2022-08-28T01:28:12.574Z,23.9
2022-08-28T01:29:17.712Z,23.9
2022-08-28T01:30:23.816Z,23.9
2022-08-28T01:31:29.935Z,23.9
2022-08-28T01:32:36.045Z,23.9
2022-08-28T01:33:42.164Z,23.9
2022-08-28T01:34:48.272Z,23.9
2022-08-28T01:35:54.388Z,23.9
2022-08-28T01:37:00.496Z,23.9
2022-08-28T01:38:06.617Z,23.9
2022-08-28T01:39:12.726Z,23.9
2022-08-28T01:40:18.846Z,23.9
2022-08-28T01:41:24.953Z,23.9
2022-08-28T01:42:31.063Z,23.9
2022-08-28T01:43:36.201Z,23.9
2022-08-28T01:44:42.322Z,23.9
2022-08-28T01:45:48.427Z,23.9
2022-08-28T01:46:54.542Z,23.9
2022-08-28T01:48:00.652Z,23.9
2022-08-28T01:49:06.774Z,23.9
2022-08-28T01:50:12.883Z,23.9
2022-08-28T01:51:18.995Z,23.9
2022-08-28T01:52:25.111Z,23.9
2022-08-28T01:53:31.224Z,23.9
2022-08-28T01:54:37.342Z,23.9
2022-08-28T01:55:43.468Z,23.9
2022-08-28T01:56:49.568Z,23.9
2022-08-28T01:57:54.700Z,23.9
2022-08-28T01:59:00.808Z,23.9
2022-08-28T02:00:06.921Z,23.9
2022-08-28T02:01:13.038Z,23.9
2022-08-28T02:02:19.145Z,23.9
2022-08-28T02:03:25.261Z,23.9
2022-08-28T02:04:31.375Z,23.9
2022-08-28T02:05:37.496Z,23.9
2022-08-28T02:06:43.603Z,23.9
2022-08-28T02:07:49.716Z,23.9
2022-08-28T02:08:55.834Z,23.9
2022-08-28T02:10:01.942Z,23.9
2022-08-28T02:11:08.058Z,23.9
2022-08-28T02:12:13.189Z,23.9
2022-08-28T02:13:19.307Z,23.9
2022-08-28T02:14:25.416Z,23.9
2022-08-28T02:15:31.530Z,23.9
2022-08-28T02:16:37.652Z,23.9
2022-08-28T02:17:43.764Z,23.9
2022-08-28T02:18:49.872Z,23.9
2022-08-28T02:19:55.991Z,23.9
2022-08-28T02:21:02.104Z,23.9
2022-08-28T02:22:08.209Z,23.9
2022-08-28T02:23:14.340Z,23.8
2022-08-28T02:24:20.438Z,23.8
2022-08-28T02:25:26.553Z,23.8
2022-08-28T02:26:31.682Z,23.8
2022-08-28T02:27:37.802Z,23.8
2022-08-28T02:28:43.912Z,23.8
2022-08-28T02:29:50.029Z,23.8
2022-08-28T02:30:56.140Z,23.8
2022-08-28T02:32:02.257Z,23.8
2022-08-28T02:33:08.365Z,23.8
2022-08-28T02:34:14.485Z,23.8
2022-08-28T02:35:20.597Z,23.8
2022-08-28T02:36:26.708Z,23.8
2022-08-28T02:37:32.816Z,23.8
2022-08-28T02:38:38.931Z,23.8
2022-08-28T02:39:45.049Z,23.8
2022-08-28T02:40:50.179Z,23.8
2022-08-28T02:41:56.294Z,23.8
2022-08-28T02:43:02.406Z,23.8
2022-08-28T02:44:08.517Z,23.8
2022-08-28T02:45:14.627Z,23.8
2022-08-28T02:46:20.752Z,23.8
2022-08-28T02:47:26.861Z,23.8
2022-08-28T02:48:32.977Z,23.8
2022-08-28T02:49:39.088Z,23.8
2022-08-28T02:50:45.206Z,23.8
2022-08-28T02:51:51.315Z,23.8
2022-08-28T02:52:57.429Z,23.8
2022-08-28T02:54:03.547Z,23.8
2022-08-28T02:55:08.678Z,23.8
2022-08-28T02:56:14.788Z,23.8
2022-08-28T02:57:20.899Z,23.8
2022-08-28T02:58:27.010Z,23.8
2022-08-28T02:59:33.129Z,23.8
2022-08-28T03:00:39.239Z,23.8
2022-08-28T03:01:45.358Z,23.8
2022-08-28T03:02:51.471Z,23.8
2022-08-28T03:03:57.582Z,23.8
2022-08-28T03:05:03.696Z,23.8
2022-08-28T03:06:09.814Z,23.8
2022-08-28T03:07:15.933Z,23.8
2022-08-28T03:08:22.041Z,23.8
2022-08-28T03:09:27.169Z,23.8
2022-08-28T03:10:33.279Z,23.8
2022-08-28T03:11:39.396Z,23.8
2022-08-28T03:12:45.506Z,23.8
2022-08-28T03:13:51.627Z,23.8
2022-08-28T03:14:57.732Z,23.8
2022-08-28T03:16:03.847Z,23.8
2022-08-28T03:17:09.967Z,23.8
2022-08-28T03:18:16.106Z,23.8
2022-08-28T03:19:22.203Z,23.8
2022-08-28T03:20:28.307Z,23.8
2022-08-28T03:21:34.424Z,23.8
2022-08-28T03:22:40.540Z,23.8
2022-08-28T03:23:45.665Z,23.8
2022-08-28T03:24:51.784Z,23.8
2022-08-28T03:25:57.901Z,23.8
2022-08-28T03:27:04.006Z,23.8
2022-08-28T03:28:10.122Z,23.8
2022-08-28T03:29:16.230Z,23.8
2022-08-28T03:30:21.372Z,23.8
2022-08-28T03:31:27.481Z,23.8
2022-08-28T03:32:33.595Z,23.8
2022-08-28T03:33:39.712Z,23.8
2022-08-28T03:34:45.823Z,23.8
2022-08-28T03:35:51.935Z,23.8
2022-08-28T03:36:58.049Z,23.8
2022-08-28T03:38:04.167Z,23.8
2022-08-28T03:39:10.306Z,23.8
2022-08-28T03:40:16.393Z,23.8
2022-08-28T03:41:22.504Z,23.8
2022-08-28T03:42:28.616Z,23.8
2022-08-28T03:43:34.732Z,23.8
2022-08-28T03:44:39.871Z,23.8
2022-08-28T03:45:45.984Z,23.8
2022-08-28T03:46:52.090Z,23.8
2022-08-28T03:47:58.206Z,23.8
2022-08-28T03:49:04.317Z,23.8
2022-08-28T03:50:10.434Z,23.8
2022-08-28T03:51:16.547Z,23.8
2022-08-28T03:52:22.660Z,23.8
2022-08-28T03:53:28.782Z,23.8
2022-08-28T03:54:34.893Z,23.7
2022-08-28T03:55:41.009Z,23.8
2022-08-28T03:56:47.118Z,23.8
2022-08-28T03:57:53.235Z,23.8
2022-08-28T03:58:58.351Z,23.8
2022-08-28T04:00:04.478Z,23.7
2022-08-28T04:01:10.607Z,23.8
2022-08-28T04:02:16.701Z,23.8
2022-08-28T04:03:22.811Z,23.7
2022-08-28T04:04:28.927Z,23.8
2022-08-28T04:05:35.038Z,23.7
2022-08-28T04:06:41.153Z,23.7
2022-08-28T04:07:47.272Z,23.8
2022-08-28T04:08:53.375Z,23.7
2022-08-28T04:09:59.493Z,23.7
2022-08-28T04:11:05.609Z,23.7
2022-08-28T04:12:11.722Z,23.7
2022-08-28T04:13:16.852Z,23.7
2022-08-28T04:14:22.967Z,23.7
2022-08-28T04:15:29.076Z,23.7
2022-08-28T04:16:35.196Z,23.7
2022-08-28T04:17:41.309Z,23.7
2022-08-28T04:18:47.424Z,23.7
2022-08-28T04:19:53.541Z,23.7
2022-08-28T04:20:59.649Z,23.7
2022-08-28T04:22:05.760Z,23.7
2022-08-28T04:23:11.876Z,23.7
2022-08-28T04:24:17.985Z,23.7
2022-08-28T04:25:24.111Z,23.7
2022-08-28T04:26:30.221Z,23.7
2022-08-28T04:27:35.342Z,23.7
2022-08-28T04:28:41.473Z,23.7
2022-08-28T04:29:47.572Z,23.7
2022-08-28T04:30:53.692Z,23.7
2022-08-28T04:31:59.801Z,23.7
2022-08-28T04:33:05.917Z,23.7
2022-08-28T04:34:12.037Z,23.7
2022-08-28T04:35:18.146Z,23.7
2022-08-28T04:36:24.260Z,23.7
2022-08-28T04:37:30.373Z,23.7
2022-08-28T04:38:36.491Z,23.7
2022-08-28T04:39:42.597Z,23.7
2022-08-28T04:40:48.714Z,23.7
2022-08-28T04:41:53.842Z,23.7
2022-08-28T04:42:59.956Z,23.7
2022-08-28T04:44:06.071Z,23.7
2022-08-28T04:45:12.183Z,23.7
2022-08-28T04:46:18.300Z,23.7
2022-08-28T04:47:24.416Z,23.7
2022-08-28T04:48:30.528Z,23.7
2022-08-28T04:49:36.644Z,23.7
2022-08-28T04:50:42.752Z,23.7
2022-08-28T04:51:48.871Z,23.7
2022-08-28T04:52:54.980Z,23.7
2022-08-28T04:54:01.093Z,23.7
2022-08-28T04:55:07.208Z,23.7
2022-08-28T04:56:12.336Z,23.7
2022-08-28T04:57:18.452Z,23.7
2022-08-28T04:58:24.582Z,23.7
2022-08-28T04:59:30.681Z,23.7
2022-08-28T05:00:36.797Z,23.7
2022-08-28T05:01:42.903Z,23.7
2022-08-28T05:02:49.020Z,23.7
2022-08-28T05:03:55.143Z,23.7
2022-08-28T05:05:01.247Z,23.7
2022-08-28T05:06:07.364Z,23.7
2022-08-28T05:07:13.478Z,23.7
2022-08-28T05:08:19.590Z,23.7
2022-08-28T05:09:25.712Z,23.7
2022-08-28T05:10:30.833Z,23.7
2022-08-28T05:11:36.944Z,23.7
2022-08-28T05:12:43.063Z,23.7
2022-08-28T05:13:49.170Z,23.7
2022-08-28T05:14:55.294Z,23.7
2022-08-28T05:16:01.405Z,23.7
2022-08-28T05:17:07.535Z,23.7
2022-08-28T05:18:13.625Z,23.7
2022-08-28T05:19:19.741Z,23.7
2022-08-28T05:20:25.862Z,23.7
2022-08-28T05:21:31.973Z,23.7
2022-08-28T05:22:38.088Z,23.7
2022-08-28T05:23:44.200Z,23.7
2022-08-28T05:24:49.334Z,23.7
2022-08-28T05:25:55.438Z,23.7
2022-08-28T05:27:01.558Z,23.6
2022-08-28T05:28:07.688Z,23.7
2022-08-28T05:29:13.792Z,23.6
2022-08-28T05:30:19.898Z,23.7
2022-08-28T05:31:26.010Z,23.7
2022-08-28T05:32:32.127Z,23.6
2022-08-28T05:33:38.237Z,23.6
2022-08-28T05:34:44.354Z,23.6
2022-08-28T05:35:50.459Z,23.6
2022-08-28T05:36:56.576Z,23.7
2022-08-28T05:38:02.697Z,23.6
2022-08-28T05:39:07.823Z,23.6
2022-08-28T05:40:13.939Z,23.6
2022-08-28T05:41:20.051Z,23.6
2022-08-28T05:42:26.172Z,23.6
2022-08-28T05:43:32.274Z,23.6
2022-08-28T05:44:38.391Z,23.6
2022-08-28T05:45:44.505Z,23.6
2022-08-28T05:46:50.619Z,23.6
2022-08-28T05:47:56.740Z,23.6
2022-08-28T05:49:02.855Z,23.6
2022-08-28T05:50:08.961Z,23.6
2022-08-28T05:51:15.083Z,23.6
2022-08-28T05:52:21.195Z,23.6
2022-08-28T05:53:26.328Z,23.6
2022-08-28T05:54:32.436Z,23.6
2022-08-28T05:55:38.546Z,23.6
2022-08-28T05:56:44.670Z,23.6
2022-08-28T05:57:50.781Z,23.6
2022-08-28T05:58:56.886Z,23.6
2022-08-28T06:00:03.004Z,23.6
2022-08-28T06:01:09.118Z,23.6
2022-08-28T06:02:15.225Z,23.6
2022-08-28T06:03:21.346Z,23.6
2022-08-28T06:04:27.459Z,23.6
2022-08-28T06:05:33.573Z,23.6
2022-08-28T06:06:39.698Z,23.6
2022-08-28T06:07:44.811Z,23.6
2022-08-28T06:08:50.927Z,23.6
2022-08-28T06:09:57.045Z,23.6
2022-08-28T06:11:03.177Z,23.6
2022-08-28T06:12:09.280Z,23.6
2022-08-28T06:13:15.387Z,23.6
2022-08-28T06:14:21.494Z,23.6
2022-08-28T06:15:27.608Z,23.6
2022-08-28T06:16:33.727Z,23.6
2022-08-28T06:17:39.838Z,23.6
2022-08-28T06:18:45.948Z,23.6
2022-08-28T06:19:52.078Z,23.6
2022-08-28T06:20:58.181Z,23.6
2022-08-28T06:22:03.323Z,23.6
2022-08-28T06:23:09.461Z,23.6
2022-08-28T06:24:15.549Z,23.6
2022-08-28T06:25:21.653Z,23.6
2022-08-28T06:26:27.770Z,23.6
2022-08-28T06:27:33.886Z,23.6
2022-08-28T06:28:39.989Z,23.6
2022-08-28T06:29:46.099Z,23.6
2022-08-28T06:30:52.214Z,23.6
2022-08-28T06:31:58.334Z,23.6
2022-08-28T06:33:04.444Z,23.6
2022-08-28T06:34:10.560Z,23.6
2022-08-28T06:35:16.667Z,23.6
2022-08-28T06:36:21.801Z,23.6
2022-08-28T06:37:27.918Z,23.6
2022-08-28T06:38:34.027Z,23.6
2022-08-28T06:39:40.143Z,23.6
2022-08-28T06:40:46.259Z,23.6
2022-08-28T06:41:52.375Z,23.6
2022-08-28T06:42:58.485Z,23.6
2022-08-28T06:44:04.604Z,23.6
2022-08-28T06:45:10.715Z,23.6
2022-08-28T06:46:16.825Z,23.6
2022-08-28T06:47:22.938Z,23.6
2022-08-28T06:48:29.053Z,23.6
2022-08-28T06:49:35.170Z,23.6
2022-08-28T06:50:40.294Z,23.6
2022-08-28T06:51:46.407Z,23.5
2022-08-28T06:52:52.537Z,23.5
2022-08-28T06:53:58.639Z,23.5
2022-08-28T06:55:04.754Z,23.6
2022-08-28T06:56:10.870Z,23.6
2022-08-28T06:57:16.987Z,23.6
2022-08-28T06:58:23.092Z,23.6
2022-08-28T06:59:29.208Z,23.5
2022-08-28T07:00:35.337Z,23.5
2022-08-28T07:01:41.430Z,23.5
2022-08-28T07:02:47.547Z,23.5
2022-08-28T07:03:53.668Z,23.5
2022-08-28T07:04:58.787Z,23.5
2022-08-28T07:06:04.905Z,23.5
2022-08-28T07:07:11.013Z,23.5
2022-08-28T07:08:17.129Z,23.5
2022-08-28T07:09:23.239Z,23.5
2022-08-28T07:10:29.358Z,23.5
2022-08-28T07:11:34.665Z,23.5
2022-08-28T07:12:40.611Z,23.5
2022-08-28T07:13:46.722Z,23.5
2022-08-28T07:14:52.833Z,23.5
2022-08-28T07:15:58.952Z,23.5
2022-08-28T07:17:05.061Z,23.5
2022-08-28T07:18:11.178Z,23.5
2022-08-28T07:19:17.290Z,23.5
2022-08-28T07:20:23.401Z,23.5
2022-08-28T07:21:29.524Z,23.5
2022-08-28T07:22:35.635Z,23.5
2022-08-28T07:23:41.747Z,23.5
2022-08-28T07:24:47.864Z,23.5
2022-08-28T07:25:53.000Z,23.5
2022-08-28T07:26:59.104Z,23.5
2022-08-28T07:28:05.221Z,23.5
2022-08-28T07:29:11.329Z,23.5
2022-08-28T07:30:17.444Z,23.5
2022-08-28T07:31:23.556Z,23.5
2022-08-28T07:32:29.668Z,23.5
2022-08-28T07:33:35.790Z,23.5
2022-08-28T07:34:41.901Z,23.5
2022-08-28T07:35:48.017Z,23.5
2022-08-28T07:36:54.132Z,23.5
2022-08-28T07:38:00.241Z,23.5
2022-08-28T07:39:06.355Z,23.5
2022-08-28T07:40:11.487Z,23.5
2022-08-28T07:41:17.601Z,23.5
2022-08-28T07:42:23.712Z,23.5
2022-08-28T07:43:29.831Z,23.5
2022-08-28T07:44:35.943Z,23.5
2022-08-28T07:45:42.052Z,23.5
2022-08-28T07:46:48.176Z,23.5
2022-08-28T07:47:54.286Z,23.5
2022-08-28T07:49:00.392Z,23.5
2022-08-28T07:50:06.506Z,23.5
2022-08-28T07:51:12.624Z,23.5
2022-08-28T07:52:18.738Z,23.5
2022-08-28T07:53:24.848Z,23.5
2022-08-28T07:54:29.982Z,23.5
2022-08-28T07:55:36.095Z,23.5
2022-08-28T07:56:42.212Z,23.5
2022-08-28T07:57:48.317Z,23.5
2022-08-28T07:58:54.436Z,23.5
2022-08-28T08:00:00.545Z,23.4
2022-08-28T08:01:06.659Z,23.5
2022-08-28T08:02:12.781Z,23.5
2022-08-28T08:03:18.893Z,23.5
2022-08-28T08:04:25.005Z,23.5
2022-08-28T08:05:31.111Z,23.4
2022-08-28T08:06:37.237Z,23.5
2022-08-28T08:07:43.348Z,23.4
2022-08-28T08:08:48.469Z,23.4
2022-08-28T08:09:54.604Z,23.4
2022-08-28T08:11:00.694Z,23.4
2022-08-28T08:12:06.809Z,23.4
2022-08-28T08:13:12.927Z,23.4
2022-08-28T08:14:19.040Z,23.4
2022-08-28T08:15:25.168Z,23.4
2022-08-28T08:16:31.272Z,23.4
2022-08-28T08:17:37.384Z,23.4
2022-08-28T08:18:43.497Z,23.4
2022-08-28T08:19:49.606Z,23.4
2022-08-28T08:20:55.719Z,23.4
2022-08-28T08:22:01.833Z,23.4
2022-08-28T08:23:06.965Z,23.4
2022-08-28T08:24:13.077Z,23.4
2022-08-28T08:25:19.198Z,23.4
2022-08-28T08:26:25.303Z,23.4
2022-08-28T08:27:31.415Z,23.4
2022-08-28T08:28:37.534Z,23.4
2022-08-28T08:29:43.651Z,23.4
2022-08-28T08:30:49.768Z,23.4
2022-08-28T08:31:55.892Z,23.4
2022-08-28T08:33:01.985Z,23.4
2022-08-28T08:34:08.101Z,23.4
2022-08-28T08:35:14.219Z,23.4
2022-08-28T08:36:20.333Z,23.4
2022-08-28T08:37:25.467Z,23.4
2022-08-28T08:38:31.576Z,23.4
2022-08-28T08:39:37.694Z,23.4
2022-08-28T08:40:43.802Z,23.4
2022-08-28T08:41:49.918Z,23.4
2022-08-28T08:42:56.026Z,23.4
2022-08-28T08:44:02.147Z,23.4
2022-08-28T08:45:08.254Z,23.4
2022-08-28T08:46:14.376Z,23.4
2022-08-28T08:47:20.492Z,23.4
2022-08-28T08:48:26.603Z,23.4
2022-08-28T08:49:32.711Z,23.4
2022-08-28T08:50:38.829Z,23.4
2022-08-28T08:51:43.958Z,23.4
2022-08-28T08:52:50.070Z,23.4
2022-08-28T08:53:56.182Z,23.4
2022-08-28T08:55:02.299Z,23.4
2022-08-28T08:56:08.404Z,23.4
2022-08-28T08:57:14.526Z,23.4
2022-08-28T08:58:20.647Z,23.4
2022-08-28T08:59:26.750Z,23.4
2022-08-28T09:00:32.865Z,23.4
2022-08-28T09:01:38.982Z,23.4
2022-08-28T09:02:45.086Z,23.4
2022-08-28T09:03:51.211Z,23.4
2022-08-28T09:04:57.319Z,23.4
2022-08-28T09:06:02.445Z,23.4
2022-08-28T09:07:08.560Z,23.4
2022-08-28T09:08:14.681Z,23.4
2022-08-28T09:09:20.794Z,23.4
2022-08-28T09:10:26.921Z,23.4
2022-08-28T09:11:33.017Z,23.4
2022-08-28T09:12:39.132Z,23.4
2022-08-28T09:13:45.244Z,23.4
2022-08-28T09:14:51.356Z,23.4
2022-08-28T09:15:57.475Z,23.4
2022-08-28T09:17:03.594Z,23.4
2022-08-28T09:18:09.698Z,23.4
2022-08-28T09:19:15.822Z,23.4
2022-08-28T09:20:20.947Z,23.4
2022-08-28T09:21:27.061Z,23.4
2022-08-28T09:22:33.164Z,23.3
2022-08-28T09:23:39.287Z,23.4
2022-08-28T09:24:45.405Z,23.4
2022-08-28T09:25:51.513Z,23.4
2022-08-28T09:26:57.621Z,23.4
2022-08-28T09:28:03.738Z,23.3
2022-08-28T09:29:09.852Z,23.3
2022-08-28T09:30:15.964Z,23.4
2022-08-28T09:31:22.090Z,23.3
2022-08-28T09:32:28.193Z,23.3
2022-08-28T09:33:34.305Z,23.3
2022-08-28T09:34:39.436Z,23.3
2022-08-28T09:35:45.577Z,23.3
2022-08-28T09:36:51.666Z,23.4
2022-08-28T09:37:57.783Z,23.3
2022-08-28T09:39:03.906Z,23.3
2022-08-28T09:40:10.012Z,23.3
2022-08-28T09:41:16.115Z,23.3
2022-08-28T09:42:22.236Z,23.3
2022-08-28T09:43:28.339Z,23.3
2022-08-28T09:44:34.464Z,23.3
2022-08-28T09:45:40.570Z,23.3
2022-08-28T09:46:46.680Z,23.3
2022-08-28T09:47:52.805Z,23.3
2022-08-28T09:48:57.933Z,23.3
2022-08-28T09:50:04.078Z,23.3
2022-08-28T09:51:10.161Z,23.3
2022-08-28T09:52:16.263Z,23.3
2022-08-28T09:53:22.377Z,23.3
2022-08-28T09:54:28.501Z,23.3
2022-08-28T09:55:34.612Z,23.3
2022-08-28T09:56:40.735Z,23.3
2022-08-28T09:57:46.837Z,23.3
2022-08-28T09:58:52.951Z,23.3
2022-08-28T09:59:59.069Z,23.3
2022-08-28T10:01:05.182Z,23.3
2022-08-28T10:02:11.297Z,23.3
2022-08-28T10:03:16.427Z,23.3
2022-08-28T10:04:22.538Z,23.3
2022-08-28T10:05:28.657Z,23.3
2022-08-28T10:06:34.771Z,23.3
2022-08-28T10:07:40.882Z,23.3
2022-08-28T10:08:46.992Z,23.3
2022-08-28T10:09:53.116Z,23.3
2022-08-28T10:10:59.223Z,23.3
2022-08-28T10:12:05.325Z,23.3
2022-08-28T10:13:11.448Z,23.3
2022-08-28T10:14:17.561Z,23.3
2022-08-28T10:15:23.682Z,23.3
2022-08-28T10:16:29.793Z,23.3
2022-08-28T10:17:34.917Z,23.3
2022-08-28T10:18:41.028Z,23.3
2022-08-28T10:19:47.147Z,23.3
2022-08-28T10:20:53.261Z,23.3
2022-08-28T10:21:59.375Z,23.3
2022-08-28T10:23:05.494Z,23.3
2022-08-28T10:24:11.596Z,23.3
2022-08-28T10:25:17.712Z,23.3
2022-08-28T10:26:23.832Z,23.3
2022-08-28T10:27:29.941Z,23.3
2022-08-28T10:28:36.055Z,23.3
2022-08-28T10:29:42.173Z,23.3
2022-08-28T10:30:48.295Z,23.3
2022-08-28T10:31:53.414Z,23.3
2022-08-28T10:32:59.525Z,23.3
2022-08-28T10:34:05.638Z,23.3
2022-08-28T10:35:11.760Z,23.3
2022-08-28T10:36:17.864Z,23.3
2022-08-28T10:37:23.984Z,23.3
2022-08-28T10:38:30.092Z,23.3
2022-08-28T10:39:36.210Z,23.3
2022-08-28T10:40:42.320Z,23.3
2022-08-28T10:41:48.438Z,23.3
2022-08-28T10:42:54.544Z,23.3
2022-08-28T10:44:00.661Z,23.3
2022-08-28T10:45:06.782Z,23.2
2022-08-28T10:46:11.907Z,23.2
2022-08-28T10:47:18.027Z,23.3
2022-08-28T10:48:24.137Z,23.2
2022-08-28T10:49:30.252Z,23.2
2022-08-28T10:50:36.368Z,23.2
2022-08-28T10:51:42.478Z,23.3
2022-08-28T10:52:47.614Z,23.2
2022-08-28T10:53:53.729Z,23.2
2022-08-28T10:54:59.835Z,23.2
2022-08-28T10:56:05.953Z,23.2
2022-08-28T10:57:12.069Z,23.2
2022-08-28T10:58:18.180Z,23.2
2022-08-28T10:59:24.293Z,23.2
2022-08-28T11:00:30.406Z,23.2
2022-08-28T11:01:36.527Z,23.2
2022-08-28T11:02:42.633Z,23.2
2022-08-28T11:03:48.753Z,23.2
2022-08-28T11:04:54.865Z,23.2
2022-08-28T11:06:00.999Z,23.2
2022-08-28T11:07:06.108Z,23.2
2022-08-28T11:08:12.220Z,23.2
2022-08-28T11:09:18.343Z,23.2
2022-08-28T11:10:24.445Z,23.2
2022-08-28T11:11:30.570Z,23.2
2022-08-28T11:12:36.674Z,23.2
2022-08-28T11:13:42.793Z,23.2
2022-08-28T11:14:48.897Z,23.2
2022-08-28T11:15:55.011Z,23.2
2022-08-28T11:17:01.133Z,23.2
2022-08-28T11:18:07.242Z,23.2
2022-08-28T11:19:13.360Z,23.2
2022-08-28T11:20:19.486Z,23.2
2022-08-28T11:21:24.597Z,23.2
2022-08-28T11:22:30.716Z,23.2
2022-08-28T11:23:36.829Z,23.2
2022-08-28T11:24:42.953Z,23.2
2022-08-28T11:25:49.072Z,23.2
2022-08-28T11:26:55.180Z,23.2
2022-08-28T11:28:01.308Z,23.2
2022-08-28T11:29:07.401Z,23.2
2022-08-28T11:30:13.519Z,23.2
2022-08-28T11:31:19.621Z,23.2
2022-08-28T11:32:25.737Z,23.2
2022-08-28T11:33:31.855Z,23.2
2022-08-28T11:34:37.977Z,23.2
2022-08-28T11:35:43.095Z,23.2
2022-08-28T11:36:49.209Z,23.2
2022-08-28T11:37:55.322Z,23.2
2022-08-28T11:39:01.440Z,23.2
2022-08-28T11:40:07.551Z,23.2
2022-08-28T11:41:13.665Z,23.2
2022-08-28T11:42:19.771Z,23.2
2022-08-28T11:43:25.891Z,23.2
2022-08-28T11:44:32.005Z,23.2
2022-08-28T11:45:38.126Z,23.2
2022-08-28T11:46:44.233Z,23.2
2022-08-28T11:47:50.350Z,23.2
2022-08-28T11:48:56.455Z,23.2
2022-08-28T11:50:01.592Z,23.2
2022-08-28T11:51:07.698Z,23.2
2022-08-28T11:52:13.817Z,23.2
2022-08-28T11:53:19.942Z,23.2
2022-08-28T11:54:26.053Z,23.2
2022-08-28T11:55:32.163Z,23.2
2022-08-28T11:56:38.275Z,23.2
2022-08-28T11:57:44.392Z,23.2
2022-08-28T11:58:50.499Z,23.2
2022-08-28T11:59:56.621Z,23.2
2022-08-28T12:01:02.724Z,23.2
2022-08-28T12:02:08.847Z,23.2
2022-08-28T12:03:14.955Z,23.2
2022-08-28T12:04:20.088Z,23.2
2022-08-28T12:05:26.198Z,23.2
2022-08-28T12:06:32.312Z,23.1
2022-08-28T12:07:38.425Z,23.2
2022-08-28T12:08:44.539Z,23.2
2022-08-28T12:09:50.656Z,23.2
2022-08-28T12:10:56.764Z,23.2
2022-08-28T12:12:02.887Z,23.2
2022-08-28T12:13:08.999Z,23.2
2022-08-28T12:14:15.107Z,23.1
2022-08-28T12:15:21.234Z,23.1
2022-08-28T12:16:27.333Z,23.2
2022-08-28T12:17:33.448Z,23.2
2022-08-28T12:18:38.581Z,23.1
2022-08-28T12:19:44.697Z,23.2
2022-08-28T12:20:50.810Z,23.1
2022-08-28T12:21:56.918Z,23.1
2022-08-28T12:23:03.043Z,23.1
2022-08-28T12:24:09.148Z,23.1
2022-08-28T12:25:15.269Z,23.1
2022-08-28T12:26:21.374Z,23.1
2022-08-28T12:27:27.490Z,23.1
2022-08-28T12:28:33.596Z,23.1
2022-08-28T12:29:39.717Z,23.1
2022-08-28T12:30:45.842Z,23.1
2022-08-28T12:31:51.946Z,23.1
2022-08-28T12:32:57.075Z,23.1
2022-08-28T12:34:03.184Z,23.1
2022-08-28T12:35:09.307Z,23.1
2022-08-28T12:36:15.417Z,23.1
2022-08-28T12:37:21.533Z,23.1
2022-08-28T12:38:27.644Z,23.1
2022-08-28T12:39:33.765Z,23.1
2022-08-28T12:40:39.866Z,23.1
2022-08-28T12:41:45.984Z,23.1
2022-08-28T12:42:52.100Z,23.1
2022-08-28T12:43:58.206Z,23.1
2022-08-28T12:45:04.337Z,23.1
2022-08-28T12:46:10.439Z,23.1
2022-08-28T12:47:15.575Z,23.1
2022-08-28T12:48:21.685Z,23.1
2022-08-28T12:49:27.803Z,23.1
2022-08-28T12:50:33.914Z,23.1
2022-08-28T12:51:40.028Z,23.1
2022-08-28T12:52:46.141Z,23.1
2022-08-28T12:53:52.247Z,23.1
2022-08-28T12:54:58.354Z,23.1
2022-08-28T12:56:04.473Z,23.1
2022-08-28T12:57:10.596Z,23.1
2022-08-28T12:58:16.706Z,23.1
2022-08-28T12:59:22.822Z,23.1
2022-08-28T13:00:28.932Z,23.1
2022-08-28T13:01:34.058Z,23.1
2022-08-28T13:02:40.177Z,23.1
2022-08-28T13:03:46.292Z,23.1
2022-08-28T13:04:52.402Z,23.1
2022-08-28T13:05:58.516Z,23.1
2022-08-28T13:07:04.630Z,23.1
2022-08-28T13:08:10.741Z,23.1
2022-08-28T13:09:16.862Z,23.1
2022-08-28T13:10:23.000Z,23.1
2022-08-28T13:11:29.086Z,23.1
2022-08-28T13:12:35.193Z,23.1
2022-08-28T13:13:41.318Z,23.1
2022-08-28T13:14:47.432Z,23.1
2022-08-28T13:15:52.563Z,23.1
2022-08-28T13:16:58.674Z,23.1
2022-08-28T13:18:04.785Z,23.1
2022-08-28T13:19:10.895Z,23.1
2022-08-28T13:20:17.011Z,23.1
2022-08-28T13:21:23.131Z,23.1
2022-08-28T13:22:29.251Z,23.1
2022-08-28T13:23:35.372Z,23.1
2022-08-28T13:24:41.469Z,23.1
2022-08-28T13:25:47.587Z,23.1
2022-08-28T13:26:53.690Z,23.1
2022-08-28T13:27:59.806Z,23.1
2022-08-28T13:29:05.930Z,23.1
2022-08-28T13:30:11.053Z,23.1
2022-08-28T13:31:17.160Z,23.1
2022-08-28T13:32:23.285Z,23.1
2022-08-28T13:33:29.398Z,23.1
2022-08-28T13:34:35.508Z,23.1
2022-08-28T13:35:41.616Z,23.1
2022-08-28T13:36:47.739Z,23.1
2022-08-28T13:37:53.850Z,23.1
2022-08-28T13:38:59.957Z,23.1
2022-08-28T13:40:06.078Z,23.1
2022-08-28T13:41:12.189Z,23.1
2022-08-28T13:42:18.303Z,23.1
2022-08-28T13:43:24.418Z,23.1
2022-08-28T13:44:29.551Z,23.1
2022-08-28T13:45:35.657Z,23
2022-08-28T13:46:41.772Z,23.1
2022-08-28T13:47:47.890Z,23
2022-08-28T13:48:54.004Z,23
2022-08-28T13:50:00.116Z,23
2022-08-28T13:51:06.225Z,23
2022-08-28T13:52:12.348Z,23.1
2022-08-28T13:53:18.451Z,23
2022-08-28T13:54:24.567Z,23
2022-08-28T13:55:30.686Z,23
2022-08-28T13:56:36.809Z,23
2022-08-28T13:57:42.906Z,23
2022-08-28T13:58:48.039Z,23
2022-08-28T13:59:54.156Z,23
2022-08-28T14:01:00.264Z,23
2022-08-28T14:02:06.386Z,23
2022-08-28T14:03:12.501Z,23
2022-08-28T14:04:18.605Z,23
2022-08-28T14:05:24.720Z,23
2022-08-28T14:06:30.836Z,23
2022-08-28T14:07:36.955Z,23
2022-08-28T14:08:43.065Z,23
2022-08-28T14:09:49.180Z,23
2022-08-28T14:10:55.290Z,23
2022-08-28T14:12:01.401Z,23
2022-08-28T14:13:06.535Z,23
2022-08-28T14:14:12.649Z,23
2022-08-28T14:15:18.772Z,23
2022-08-28T14:16:24.881Z,23
2022-08-28T14:17:31.008Z,23
2022-08-28T14:18:37.111Z,23
2022-08-28T14:19:43.216Z,23
2022-08-28T14:20:49.329Z,23
2022-08-28T14:21:55.462Z,23
2022-08-28T14:23:01.564Z,23
2022-08-28T14:24:07.674Z,23
2022-08-28T14:26:19.904Z,23
2022-08-28T14:27:25.034Z,23
2022-08-28T14:28:31.140Z,23
2022-08-28T14:29:37.261Z,23
2022-08-28T14:30:43.371Z,23
2022-08-28T14:31:49.486Z,23
2022-08-28T14:32:55.600Z,23
2022-08-28T14:34:00.743Z,23
2022-08-28T14:35:06.846Z,23
2022-08-28T14:36:12.962Z,23
2022-08-28T14:37:19.074Z,23
2022-08-28T14:38:25.183Z,23
2022-08-28T14:39:31.303Z,23
2022-08-28T14:40:37.415Z,23
2022-08-28T14:41:43.532Z,23
2022-08-28T14:42:49.639Z,23
2022-08-28T14:43:55.758Z,23
2022-08-28T14:45:01.873Z,23